createdAt,value
2022-08-30T00:00:22.583Z,22.70
2022-08-30T00:02:49.667Z,22.20
2022-08-30T00:06:13.207Z,21.80
2022-08-30T00:08:41.011Z,21.40
2022-08-30T00:11:12.539Z,21.10
2022-08-30T00:14:32.348Z,21.00
2022-08-30T00:16:59.255Z,20.90
2022-08-30T00:19:26.217Z,21.90
2022-08-30T00:22:49.364Z,22.30
2022-08-30T00:29:53.956Z,22.40
2022-08-30T00:32:21.734Z,22.20
2022-08-30T00:34:50.174Z,22.40
2022-08-30T00:38:13.896Z,22.50
2022-08-30T00:40:44.299Z,22.30
2022-08-30T00:43:20.278Z,22.30
2022-08-30T00:50:45.871Z,22.00
2022-08-30T00:53:18.105Z,21.70
2022-08-30T00:56:41.764Z,21.50
2022-08-30T00:59:09.623Z,21.20
2022-08-30T01:02:33.129Z,21.10
2022-08-30T01:05:02.650Z,21.20
2022-08-30T01:07:29.546Z,21.10
2022-08-30T01:10:53.083Z,21.00
2022-08-30T01:13:21.786Z,20.70
2022-08-30T01:15:50.803Z,20.50
2022-08-30T01:18:21.287Z,20.30
2022-08-30T01:21:03.722Z,20.40
2022-08-30T01:24:31.223Z,20.60
2022-08-30T01:26:58.223Z,20.60
2022-08-30T01:29:26.469Z,20.30
2022-08-30T01:32:49.928Z,20.30
2022-08-30T01:35:18.386Z,20.30
2022-08-30T01:37:46.280Z,20.30
2022-08-30T01:41:09.842Z,20.10
2022-08-30T01:43:36.854Z,19.90
2022-08-30T01:46:04.703Z,19.80
2022-08-30T01:48:31.968Z,19.80
2022-08-30T01:50:59.864Z,20.40
2022-08-30T01:53:26.717Z,20.20
2022-08-30T01:56:50.238Z,20.00
2022-08-30T01:59:17.065Z,20.00
2022-08-30T02:01:50.526Z,19.80
2022-08-30T02:05:14.183Z,19.70
2022-08-30T02:07:40.980Z,19.60
2022-08-30T02:10:11.362Z,20.00
2022-08-30T02:13:34.906Z,19.90
2022-08-30T02:16:01.805Z,20.10
2022-08-30T02:18:28.669Z,20.10
2022-08-30T02:21:52.089Z,20.30
2022-08-30T02:24:19.133Z,20.50
2022-08-30T02:27:42.308Z,20.40
2022-08-30T02:30:11.228Z,20.10
2022-08-30T02:32:38.133Z,19.80
2022-08-30T02:36:01.668Z,19.80
2022-08-30T02:38:28.502Z,19.70
2022-08-30T02:40:55.559Z,19.50
2022-08-30T02:43:25.080Z,19.50
2022-08-30T02:45:52.002Z,19.60
2022-08-30T02:53:03.363Z,19.10
2022-08-30T02:55:30.486Z,18.80
2022-08-30T02:57:57.470Z,18.60
2022-08-30T03:01:20.795Z,18.40
2022-08-30T03:03:47.962Z,18.60
2022-08-30T03:06:15.425Z,19.10
2022-08-30T03:08:42.548Z,19.70
2022-08-30T03:11:09.948Z,20.20
2022-08-30T03:13:37.095Z,20.00
2022-08-30T03:16:04.172Z,19.80
2022-08-30T03:18:31.118Z,19.80
2022-08-30T03:21:54.699Z,20.20
2022-08-30T03:24:21.842Z,19.70
2022-08-30T03:26:48.719Z,19.10
2022-08-30T03:30:12.179Z,18.90
2022-08-30T03:32:39.953Z,18.70
2022-08-30T03:35:08.415Z,18.50
2022-08-30T03:37:35.963Z,18.50
2022-08-30T03:40:05.219Z,18.70
2022-08-30T03:43:23.551Z,18.90
2022-08-30T03:45:50.535Z,18.50
2022-08-30T03:48:17.951Z,18.10
2022-08-30T03:51:41.527Z,17.90
2022-08-30T03:54:11.563Z,17.70
2022-08-30T03:56:38.344Z,17.50
2022-08-30T03:59:05.461Z,17.30
2022-08-30T04:01:32.898Z,17.20
2022-08-30T04:03:59.875Z,17.00
2022-08-30T04:07:22.971Z,16.90
2022-08-30T04:09:58.757Z,16.80
2022-08-30T04:12:25.661Z,16.80
2022-08-30T04:14:52.936Z,16.70
2022-08-30T04:17:24.744Z,16.70
2022-08-30T04:20:48.987Z,16.70
2022-08-30T04:23:15.986Z,16.60
2022-08-30T04:25:43.119Z,16.40
2022-08-30T04:29:06.162Z,16.40
2022-08-30T04:31:33.160Z,16.30
2022-08-30T04:37:07.249Z,16.20
2022-08-30T04:39:42.731Z,16.20
2022-08-30T04:42:10.897Z,16.20
2022-08-30T04:44:38.020Z,16.20
2022-08-30T04:47:07.314Z,16.40
2022-08-30T04:49:37.260Z,16.50
2022-08-30T04:52:06.390Z,16.30
2022-08-30T04:54:33.376Z,16.30
2022-08-30T04:57:09.515Z,16.10
2022-08-30T04:59:38.058Z,16.10
2022-08-30T05:02:07.481Z,16.00
2022-08-30T05:04:37.619Z,16.00
2022-08-30T05:07:04.608Z,16.00
2022-08-30T05:09:31.486Z,16.10
2022-08-30T05:11:58.290Z,16.10
2022-08-30T05:14:30.640Z,16.20
2022-08-30T05:16:57.512Z,16.20
2022-08-30T05:19:24.430Z,16.20
2022-08-30T05:21:51.372Z,16.20
2022-08-30T05:24:18.924Z,16.30
2022-08-30T05:26:45.903Z,16.30
2022-08-30T05:29:12.831Z,16.40
2022-08-30T05:31:39.700Z,16.40
2022-08-30T05:34:06.632Z,16.40
2022-08-30T05:37:30.033Z,16.60
2022-08-30T05:39:57.712Z,16.60
2022-08-30T05:42:24.583Z,16.80
2022-08-30T05:44:52.975Z,16.80
2022-08-30T05:47:20.792Z,16.90
2022-08-30T05:49:48.517Z,16.90
2022-08-30T05:52:18.347Z,17.00
2022-08-30T05:54:45.824Z,16.90
2022-08-30T05:57:12.671Z,17.00
2022-08-30T05:59:39.598Z,17.10
2022-08-30T06:02:07.357Z,17.20
2022-08-30T06:04:34.325Z,17.20
2022-08-30T06:07:01.762Z,17.30
2022-08-30T06:09:28.913Z,17.30
2022-08-30T06:11:55.938Z,17.30
2022-08-30T06:14:22.860Z,17.40
2022-08-30T06:16:50.368Z,17.50
2022-08-30T06:19:17.854Z,17.60
2022-08-30T06:21:48.311Z,17.70
2022-08-30T06:24:15.604Z,17.80
2022-08-30T06:26:45.909Z,18.00
2022-08-30T06:29:16.163Z,18.00
2022-08-30T06:31:43.248Z,18.10
2022-08-30T06:34:10.393Z,18.20
2022-08-30T06:37:33.803Z,18.30
2022-08-30T06:40:02.381Z,18.40
2022-08-30T06:42:33.421Z,18.50
2022-08-30T06:45:02.140Z,18.60
2022-08-30T06:47:29.856Z,18.70
2022-08-30T06:49:57.771Z,18.80
2022-08-30T06:52:25.482Z,18.80
2022-08-30T06:54:53.809Z,18.80
2022-08-30T06:57:20.612Z,18.90
2022-08-30T06:59:47.466Z,19.00
2022-08-30T07:02:14.369Z,19.10
2022-08-30T07:04:41.280Z,19.10
2022-08-30T07:07:11.150Z,19.20
2022-08-30T07:09:43.216Z,19.40
2022-08-30T07:12:14.099Z,19.60
2022-08-30T07:14:41.348Z,19.70
2022-08-30T07:17:31.266Z,19.90
2022-08-30T07:20:01.377Z,20.00
2022-08-30T07:22:28.982Z,20.10
2022-08-30T07:24:55.781Z,20.20
2022-08-30T07:27:22.600Z,20.20
2022-08-30T07:29:50.071Z,20.30
2022-08-30T07:32:17.319Z,20.40
2022-08-30T07:34:44.119Z,20.50
2022-08-30T07:38:07.652Z,20.60
2022-08-30T07:40:34.637Z,20.70
2022-08-30T07:43:02.256Z,20.70
2022-08-30T07:45:29.209Z,20.80
2022-08-30T07:47:57.627Z,20.80
2022-08-30T07:50:25.207Z,20.90
2022-08-30T07:52:52.225Z,21.00
2022-08-30T07:55:19.201Z,21.10
2022-08-30T07:57:46.121Z,21.20
2022-08-30T08:00:13.419Z,21.30
2022-08-30T08:02:41.824Z,21.40
2022-08-30T08:05:15.065Z,21.50
2022-08-30T08:07:43.926Z,21.60
2022-08-30T08:10:11.498Z,21.70
2022-08-30T08:12:38.330Z,21.80
2022-08-30T08:15:08.745Z,21.80
2022-08-30T08:17:35.822Z,21.90
2022-08-30T08:20:03.738Z,22.00
2022-08-30T08:22:30.485Z,22.10
2022-08-30T08:24:57.436Z,22.20
2022-08-30T08:27:24.743Z,22.30
2022-08-30T08:29:51.783Z,22.50
2022-08-30T08:32:18.832Z,22.60
2022-08-30T08:34:46.424Z,22.70
2022-08-30T08:38:09.708Z,22.80
2022-08-30T08:40:55.526Z,22.90
2022-08-30T08:43:25.750Z,23.10
2022-08-30T08:46:12.665Z,23.30
2022-08-30T08:48:58.680Z,23.40
2022-08-30T08:51:49.162Z,23.50
2022-08-30T08:54:23.629Z,23.80
2022-08-30T08:56:50.747Z,24.40
2022-08-30T08:59:18.252Z,25.10
2022-08-30T09:01:46.743Z,25.70
2022-08-30T09:04:24.605Z,26.00
2022-08-30T09:07:01.410Z,26.50
2022-08-30T09:09:33.784Z,27.10
2022-08-30T09:12:00.843Z,27.50
2022-08-30T09:14:34.920Z,27.90
2022-08-30T09:17:02.572Z,28.10
2022-08-30T09:19:51.436Z,28.60
2022-08-30T09:22:26.681Z,28.90
2022-08-30T09:25:22.006Z,29.30
2022-08-30T09:27:51.163Z,29.80
2022-08-30T09:30:19.816Z,30.30
2022-08-30T09:32:56.796Z,30.60
2022-08-30T09:35:35.838Z,31.40
2022-08-30T09:38:59.814Z,32.00
2022-08-30T09:41:32.002Z,32.40
2022-08-30T09:44:19.349Z,32.30
2022-08-30T09:46:56.085Z,32.90
2022-08-30T09:49:34.963Z,33.50
2022-08-30T09:52:22.808Z,33.70
2022-08-30T09:55:56.780Z,33.60
2022-08-30T09:58:53.340Z,33.10
2022-08-30T10:01:40.689Z,33.20
2022-08-30T10:04:25.545Z,32.90
2022-08-30T10:07:12.241Z,33.30
2022-08-30T10:09:46.155Z,33.30
2022-08-30T10:12:16.137Z,33.20
2022-08-30T10:14:51.674Z,33.00
2022-08-30T10:17:23.687Z,33.30
2022-08-30T10:20:06.164Z,33.40
2022-08-30T10:22:48.688Z,33.10
2022-08-30T10:25:26.161Z,33.30
2022-08-30T10:28:00.328Z,33.20
2022-08-30T10:30:29.445Z,33.00
2022-08-30T10:33:06.803Z,33.10
2022-08-30T10:35:40.103Z,32.80
2022-08-30T10:39:03.407Z,32.70
2022-08-30T10:41:31.644Z,33.10
2022-08-30T10:44:17.027Z,33.10
2022-08-30T10:47:07.099Z,33.20
2022-08-30T10:49:40.847Z,33.20
2022-08-30T10:52:23.524Z,33.20
2022-08-30T10:55:08.563Z,33.30
2022-08-30T10:57:37.199Z,33.70
2022-08-30T11:00:14.310Z,33.90
2022-08-30T11:03:10.874Z,33.90
2022-08-30T11:06:08.230Z,34.10
2022-08-30T11:08:49.626Z,34.30
2022-08-30T11:11:40.811Z,34.20
2022-08-30T11:14:11.145Z,34.30
2022-08-30T11:16:41.459Z,34.50
2022-08-30T11:19:36.407Z,34.80
2022-08-30T11:22:27.400Z,35.20
2022-08-30T11:25:01.729Z,35.30
2022-08-30T11:27:53.377Z,35.30
2022-08-30T11:33:13.096Z,35.20
2022-08-30T11:35:48.048Z,35.80
2022-08-30T11:39:12.348Z,35.60
2022-08-30T11:41:47.935Z,35.90
2022-08-30T11:44:35.232Z,36.00
2022-08-30T11:47:40.973Z,35.80
2022-08-30T11:50:38.366Z,36.00
2022-08-30T11:53:30.643Z,36.20
2022-08-30T11:56:08.610Z,36.60
2022-08-30T11:58:35.345Z,37.00
2022-08-30T12:01:49.786Z,36.90
2022-08-30T12:04:22.799Z,36.70
2022-08-30T12:07:00.427Z,36.60
2022-08-30T12:09:28.208Z,36.70
2022-08-30T12:11:55.330Z,36.90
2022-08-30T12:14:42.535Z,37.00
2022-08-30T12:17:42.388Z,37.10
2022-08-30T12:20:18.964Z,37.20
2022-08-30T12:22:46.969Z,37.20
2022-08-30T12:25:26.169Z,37.20
2022-08-30T12:28:14.646Z,37.30
2022-08-30T12:30:42.536Z,37.60
2022-08-30T12:33:23.147Z,37.20
2022-08-30T12:35:58.328Z,37.00
2022-08-30T12:43:24.658Z,37.20
2022-08-30T12:45:53.595Z,37.50
2022-08-30T12:48:21.901Z,37.90
2022-08-30T12:50:56.440Z,38.20
2022-08-30T12:53:41.792Z,38.10
2022-08-30T12:56:14.580Z,38.40
2022-08-30T12:58:50.765Z,37.60
2022-08-30T13:01:36.237Z,37.30
2022-08-30T13:04:22.065Z,37.50
2022-08-30T13:06:52.237Z,37.70
2022-08-30T13:09:32.458Z,37.20
2022-08-30T13:12:02.152Z,36.70
2022-08-30T13:14:42.328Z,36.50
2022-08-30T13:17:25.585Z,36.00
2022-08-30T13:20:15.388Z,36.00
2022-08-30T13:23:07.531Z,36.20
2022-08-30T13:25:38.250Z,36.90
2022-08-30T13:28:07.536Z,37.50
2022-08-30T13:30:35.136Z,38.00
2022-08-30T13:33:02.259Z,38.20
2022-08-30T13:35:30.800Z,38.60
2022-08-30T13:37:59.944Z,39.50
2022-08-30T13:40:27.241Z,38.90
2022-08-30T13:42:54.230Z,38.40
2022-08-30T13:48:10.905Z,38.10
2022-08-30T13:50:38.220Z,38.40
2022-08-30T13:53:05.764Z,38.40
2022-08-30T13:55:33.857Z,37.80
2022-08-30T13:58:00.618Z,37.30
2022-08-30T14:00:28.235Z,36.80
2022-08-30T14:02:57.497Z,36.50
2022-08-30T14:05:50.126Z,36.40
2022-08-30T14:11:11.820Z,36.30
2022-08-30T14:14:14.766Z,35.90
2022-08-30T14:16:28.198Z,36.10
2022-08-30T14:18:56.291Z,36.50
2022-08-30T14:21:24.441Z,37.00
2022-08-30T14:23:56.676Z,37.90
2022-08-30T14:26:33.767Z,38.60
2022-08-30T14:29:03.662Z,39.20
2022-08-30T14:31:32.756Z,39.00
2022-08-30T14:34:01.855Z,39.10
2022-08-30T14:36:30.907Z,39.60
2022-08-30T14:43:26.207Z,38.80
2022-08-30T14:45:53.019Z,38.90
2022-08-30T14:48:19.977Z,38.90
2022-08-30T14:50:46.795Z,38.60
2022-08-30T14:53:13.569Z,38.90
2022-08-30T14:55:40.621Z,38.90
2022-08-30T14:58:09.119Z,39.20
2022-08-30T15:00:37.477Z,39.00
2022-08-30T15:03:04.820Z,39.50
2022-08-30T15:05:32.567Z,40.00
2022-08-30T15:07:59.689Z,40.20
2022-08-30T15:10:27.253Z,40.30
2022-08-30T15:12:54.249Z,40.40
2022-08-30T15:15:22.555Z,39.90
2022-08-30T15:17:50.008Z,39.40
2022-08-30T15:20:21.172Z,39.20
2022-08-30T15:22:48.016Z,38.90
2022-08-30T15:25:15.381Z,38.20
2022-08-30T15:27:42.156Z,37.90
2022-08-30T15:30:11.019Z,37.10
2022-08-30T15:32:38.032Z,36.50
2022-08-30T15:35:05.972Z,35.80
2022-08-30T15:37:35.000Z,35.10
2022-08-30T15:40:58.412Z,34.60
2022-08-30T15:43:25.474Z,34.20
2022-08-30T15:45:54.928Z,33.80
2022-08-30T15:48:23.307Z,33.50
2022-08-30T15:50:58.464Z,33.20
2022-08-30T15:53:25.329Z,33.10
2022-08-30T15:55:52.221Z,32.80
2022-08-30T15:58:19.115Z,32.60
2022-08-30T16:00:46.144Z,32.50
2022-08-30T16:03:13.174Z,32.30
2022-08-30T16:05:40.141Z,32.00
2022-08-30T16:08:07.158Z,31.90
2022-08-30T16:10:33.981Z,32.00
2022-08-30T16:13:01.663Z,32.00
2022-08-30T16:15:29.847Z,32.00
2022-08-30T16:17:56.625Z,31.90
2022-08-30T16:20:24.938Z,31.80
2022-08-30T16:22:52.676Z,31.70
2022-08-30T16:25:19.556Z,31.60
2022-08-30T16:27:47.329Z,31.30
2022-08-30T16:30:14.662Z,31.00
2022-08-30T16:32:41.445Z,30.90
2022-08-30T16:35:09.306Z,30.70
2022-08-30T16:37:36.293Z,30.60
2022-08-30T16:44:03.842Z,30.60
2022-08-30T16:46:33.358Z,30.40
2022-08-30T16:49:02.267Z,30.30
2022-08-30T16:51:30.751Z,30.20
2022-08-30T16:54:02.045Z,30.20
2022-08-30T16:56:30.420Z,30.10
2022-08-30T16:59:02.631Z,30.00
2022-08-30T17:01:32.441Z,29.90
2022-08-30T17:04:02.036Z,29.80
2022-08-30T17:06:28.920Z,29.70
2022-08-30T17:08:56.710Z,29.70
2022-08-30T17:11:24.442Z,29.70
2022-08-30T17:13:51.528Z,29.60
2022-08-30T17:16:25.514Z,29.50
2022-08-30T17:18:59.568Z,29.50
2022-08-30T17:21:31.256Z,29.50
2022-08-30T17:24:02.187Z,29.30
2022-08-30T17:26:35.465Z,29.10
2022-08-30T17:29:02.373Z,29.00
2022-08-30T17:31:30.916Z,28.90
2022-08-30T17:34:02.862Z,28.80
2022-08-30T17:36:35.610Z,28.60
2022-08-30T17:39:10.509Z,28.50
2022-08-30T17:45:37.505Z,28.30
2022-08-30T17:48:06.989Z,28.10
2022-08-30T17:50:35.221Z,28.10
2022-08-30T17:53:02.830Z,28.00
2022-08-30T17:55:30.832Z,28.00
2022-08-30T17:58:00.644Z,27.90
2022-08-30T18:00:27.865Z,27.80
2022-08-30T18:02:54.808Z,27.60
2022-08-30T18:05:24.532Z,27.60
2022-08-30T18:07:51.884Z,27.50
2022-08-30T18:10:18.757Z,27.30
2022-08-30T18:12:46.081Z,27.30
2022-08-30T18:15:15.969Z,27.20
2022-08-30T18:17:44.332Z,27.20
2022-08-30T18:20:11.854Z,27.10
2022-08-30T18:22:38.977Z,27.00
2022-08-30T18:25:07.919Z,26.90
2022-08-30T18:27:34.899Z,26.90
2022-08-30T18:30:11.674Z,26.80
2022-08-30T18:32:38.805Z,26.70
2022-08-30T18:35:06.491Z,26.70
2022-08-30T18:37:33.535Z,26.70
2022-08-30T18:40:01.050Z,26.60
2022-08-30T18:43:24.720Z,26.50
2022-08-30T18:46:01.307Z,26.40
2022-08-30T18:48:28.266Z,26.30
2022-08-30T18:50:55.262Z,26.30
2022-08-30T18:53:28.763Z,26.20
2022-08-30T18:55:57.265Z,26.10
2022-08-30T18:58:24.534Z,26.10
2022-08-30T19:00:51.475Z,26.10
2022-08-30T19:03:18.968Z,26.00
2022-08-30T19:05:46.251Z,26.00
2022-08-30T19:08:13.795Z,25.90
2022-08-30T19:10:41.108Z,25.90
2022-08-30T19:13:08.504Z,25.80
2022-08-30T19:15:35.880Z,25.70
2022-08-30T19:18:16.773Z,25.70
2022-08-30T19:20:45.787Z,25.70
2022-08-30T19:23:14.525Z,25.70
2022-08-30T19:25:42.188Z,25.60
2022-08-30T19:28:09.967Z,25.60
2022-08-30T19:30:36.981Z,25.60
2022-08-30T19:33:03.880Z,25.60
2022-08-30T19:35:32.785Z,25.60
2022-08-30T19:37:59.769Z,25.50
2022-08-30T19:40:27.278Z,25.50
2022-08-30T19:43:50.849Z,25.40
2022-08-30T19:46:17.678Z,25.40
2022-08-30T19:48:44.706Z,25.40
2022-08-30T19:51:13.744Z,25.40
2022-08-30T19:53:41.415Z,25.40
2022-08-30T19:56:08.634Z,25.40
2022-08-30T19:58:35.587Z,25.40
2022-08-30T20:01:10.622Z,25.30
2022-08-30T20:03:39.829Z,25.30
2022-08-30T20:06:07.936Z,25.30
2022-08-30T20:08:36.633Z,25.30
2022-08-30T20:11:04.607Z,25.30
2022-08-30T20:13:33.705Z,25.30
2022-08-30T20:16:01.006Z,25.20
2022-08-30T20:18:29.147Z,25.20
2022-08-30T20:20:56.274Z,25.20
2022-08-30T20:23:25.285Z,25.20
2022-08-30T20:25:54.606Z,25.20
2022-08-30T20:28:22.323Z,25.20
2022-08-30T20:30:49.699Z,25.20
2022-08-30T20:33:17.833Z,25.20
2022-08-30T20:35:49.095Z,25.10
2022-08-30T20:38:21.459Z,25.10
2022-08-30T20:40:54.592Z,25.20
2022-08-30T20:47:28.477Z,25.20
2022-08-30T20:49:55.342Z,25.10
2022-08-30T20:52:22.705Z,25.10
2022-08-30T20:54:49.536Z,25.10
2022-08-30T20:57:24.465Z,25.00
2022-08-30T20:59:51.453Z,25.00
2022-08-30T21:02:18.513Z,25.00
2022-08-30T21:04:45.419Z,24.90
2022-08-30T21:07:12.590Z,24.90
2022-08-30T21:09:39.378Z,24.90
2022-08-30T21:12:06.338Z,24.90
2022-08-30T21:14:33.248Z,24.90
2022-08-30T21:17:00.183Z,24.90
2022-08-30T21:19:27.696Z,24.90
2022-08-30T21:21:54.564Z,24.90
2022-08-30T21:24:21.459Z,24.90
2022-08-30T21:26:48.582Z,24.90
2022-08-30T21:29:15.432Z,24.90
2022-08-30T21:31:42.872Z,24.90
2022-08-30T21:34:17.179Z,24.80
2022-08-30T21:36:48.092Z,24.80
2022-08-30T21:39:19.615Z,24.80
2022-08-30T21:41:48.176Z,24.80
2022-08-30T21:45:11.330Z,24.80
2022-08-30T21:47:38.897Z,24.80
2022-08-30T21:50:06.536Z,24.70
2022-08-30T21:52:35.049Z,24.70
2022-08-30T21:55:02.508Z,24.70
2022-08-30T21:57:30.299Z,24.70
2022-08-30T21:59:57.318Z,24.80
2022-08-30T22:02:24.342Z,24.70
2022-08-30T22:04:51.190Z,24.70
2022-08-30T22:07:18.111Z,24.70
2022-08-30T22:09:44.928Z,24.60
2022-08-30T22:12:11.801Z,24.60
2022-08-30T22:14:38.778Z,24.60
2022-08-30T22:17:05.863Z,24.60
2022-08-30T22:19:33.906Z,24.60
2022-08-30T22:22:01.832Z,24.70
2022-08-30T22:24:32.262Z,24.60
2022-08-30T22:27:01.268Z,24.60
2022-08-30T22:29:28.944Z,24.60
2022-08-30T22:31:55.900Z,24.60
2022-08-30T22:34:22.990Z,24.70
2022-08-30T22:36:50.059Z,24.60
2022-08-30T22:39:18.222Z,24.60
2022-08-30T22:41:45.290Z,24.60
2022-08-30T22:49:18.644Z,24.60
2022-08-30T22:51:45.627Z,24.60
2022-08-30T22:54:12.582Z,24.60
2022-08-30T22:56:40.303Z,24.60
2022-08-30T22:59:07.504Z,24.60
2022-08-30T23:01:42.952Z,24.60
2022-08-30T23:04:11.789Z,24.60
2022-08-30T23:06:39.587Z,24.50
2022-08-30T23:09:07.494Z,24.50
2022-08-30T23:11:35.170Z,24.40
2022-08-30T23:14:02.992Z,24.40
2022-08-30T23:16:30.665Z,24.50
2022-08-30T23:18:57.754Z,24.40
2022-08-30T23:21:27.978Z,24.50
2022-08-30T23:24:15.507Z,24.40
2022-08-30T23:27:03.107Z,24.50
2022-08-30T23:29:49.368Z,24.40
2022-08-30T23:32:35.226Z,24.40
2022-08-30T23:35:21.019Z,24.50
2022-08-30T23:38:14.395Z,24.50
2022-08-30T23:41:00.026Z,24.50
2022-08-30T23:43:45.455Z,24.50
2022-08-30T23:46:30.931Z,24.40
2022-08-30T23:49:16.543Z,24.40
2022-08-30T23:52:39.958Z,24.40
2022-08-30T23:55:26.113Z,24.40
2022-08-30T23:58:11.716Z,24.20
